createdAt,value
2024-02-01T00:03:08.238Z,39.20
2024-02-01T00:08:15.032Z,41.40
2024-02-01T00:13:20.649Z,41.90
2024-02-01T00:18:26.458Z,45.20
2024-02-01T00:23:32.171Z,44.20
2024-02-01T00:28:37.889Z,43.20
2024-02-01T00:33:43.721Z,39.20
2024-02-01T00:38:49.841Z,37.10
2024-02-01T00:43:55.440Z,34.00
2024-02-01T00:49:01.209Z,39.60
2024-02-01T00:54:07.249Z,36.30
2024-02-01T00:59:12.916Z,36.90
2024-02-01T01:04:18.623Z,37.40
2024-02-01T01:09:24.265Z,33.30
2024-02-01T01:14:29.996Z,39.40
2024-02-01T01:19:35.672Z,34.20
2024-02-01T01:24:41.333Z,40.60
2024-02-01T01:29:46.974Z,34.40
2024-02-01T01:34:52.677Z,33.20
2024-02-01T01:39:58.321Z,32.40
2024-02-01T01:45:05.107Z,31.40
2024-02-01T01:50:11.876Z,27.60
2024-02-01T02:00:24.962Z,27.90
2024-02-01T02:05:30.762Z,29.50
2024-02-01T02:10:36.804Z,28.80
2024-02-01T02:15:42.796Z,34.40
2024-02-01T02:20:53.299Z,31.40
2024-02-01T02:25:59.261Z,33.10
2024-02-01T02:31:05.015Z,34.00
2024-02-01T02:36:11.460Z,31.60
2024-02-01T02:41:17.758Z,32.00
2024-02-01T02:46:25.365Z,33.30
2024-02-01T02:51:31.178Z,30.90
2024-02-01T02:56:37.234Z,38.10
2024-02-01T03:01:44.610Z,30.70
2024-02-01T03:06:50.968Z,35.00
2024-02-01T03:11:57.831Z,26.50
2024-02-01T03:22:08.620Z,27.80
2024-02-01T03:27:14.551Z,27.20
2024-02-01T03:32:20.925Z,27.20
2024-02-01T03:37:29.530Z,28.50
2024-02-01T03:42:35.509Z,32.60
2024-02-01T03:47:41.209Z,29.30
2024-02-01T03:52:46.914Z,33.80
2024-02-01T03:57:52.741Z,30.80
2024-02-01T04:02:59.277Z,27.30
2024-02-01T04:08:07.416Z,33.00
2024-02-01T04:13:13.035Z,32.60
2024-02-01T04:18:19.504Z,31.90
2024-02-01T04:23:25.180Z,31.00
2024-02-01T04:28:30.837Z,40.10
2024-02-01T04:33:36.602Z,37.20
2024-02-01T04:38:43.359Z,34.80
2024-02-01T04:43:49.030Z,39.30
2024-02-01T04:48:54.665Z,38.40
2024-02-01T04:54:00.374Z,37.40
2024-02-01T04:59:06.415Z,40.20
2024-02-01T05:04:15.211Z,40.40
2024-02-01T05:09:28.094Z,40.60
2024-02-01T05:14:34.451Z,38.90
2024-02-01T05:19:40.161Z,35.80
2024-02-01T05:24:46.082Z,37.50
2024-02-01T05:29:52.479Z,36.50
2024-02-01T05:34:58.098Z,35.80
2024-02-01T05:40:03.685Z,40.40
2024-02-01T05:45:11.052Z,41.90
2024-02-01T05:50:17.860Z,38.10
2024-02-01T06:00:28.158Z,33.90
2024-02-01T06:05:33.854Z,42.70
2024-02-01T06:10:39.745Z,37.60
2024-02-01T06:15:46.075Z,36.10
2024-02-01T06:20:51.783Z,37.60
2024-02-01T06:25:57.698Z,43.80
2024-02-01T06:31:03.344Z,41.80
2024-02-01T06:36:15.113Z,39.50
2024-02-01T06:41:33.138Z,37.40
2024-02-01T06:47:07.341Z,40.70
2024-02-01T06:52:26.238Z,38.80
2024-02-01T06:57:46.483Z,38.70
2024-02-01T07:03:03.489Z,45.60
2024-02-01T07:08:14.474Z,43.30
2024-02-01T07:13:36.036Z,41.40
2024-02-01T07:18:45.125Z,40.50
2024-02-01T07:23:58.645Z,39.20
2024-02-01T07:29:21.965Z,37.40
2024-02-01T07:34:45.291Z,44.60
2024-02-01T07:40:08.297Z,45.20
2024-02-01T07:45:32.222Z,49.00
2024-02-01T07:51:00.718Z,45.80
2024-02-01T07:56:24.735Z,45.00
2024-02-01T08:01:39.404Z,44.90
2024-02-01T08:07:03.248Z,50.00
2024-02-01T08:12:09.681Z,44.60
2024-02-01T08:17:15.471Z,46.10
2024-02-01T08:22:21.073Z,47.70
2024-02-01T08:27:27.439Z,45.30
2024-02-01T08:32:33.391Z,42.50
2024-02-01T08:37:39.399Z,39.10
2024-02-01T08:42:45.267Z,44.10
2024-02-01T08:47:51.320Z,37.10
2024-02-01T08:52:57.295Z,41.60
2024-02-01T08:58:10.237Z,43.90
2024-02-01T09:03:18.719Z,40.60
2024-02-01T09:08:36.824Z,39.20
2024-02-01T09:13:45.106Z,39.30
2024-02-01T09:18:51.011Z,40.50
2024-02-01T09:23:56.991Z,47.90
2024-02-01T09:29:12.734Z,44.80
2024-02-01T09:34:19.055Z,40.20
2024-02-01T09:39:24.992Z,40.10
2024-02-01T09:44:33.967Z,37.50
2024-02-01T09:49:43.543Z,37.10
2024-02-01T09:54:50.421Z,40.40
2024-02-01T09:59:56.339Z,41.60
2024-02-01T10:05:03.490Z,34.80
2024-02-01T10:10:13.550Z,36.30
2024-02-01T10:15:26.731Z,40.40
2024-02-01T10:20:41.230Z,35.60
2024-02-01T10:25:49.923Z,29.80
2024-02-01T10:30:56.416Z,33.00
2024-02-01T10:36:11.013Z,29.60
2024-02-01T10:41:25.533Z,26.60
2024-02-01T10:46:40.997Z,29.40
2024-02-01T10:51:46.975Z,32.40
2024-02-01T10:56:52.952Z,31.20
2024-02-01T11:01:59.833Z,35.30
2024-02-01T11:07:06.734Z,38.60
2024-02-01T11:12:15.908Z,36.50
2024-02-01T11:17:27.476Z,39.80
2024-02-01T11:22:34.822Z,43.30
2024-02-01T11:27:47.850Z,40.90
2024-02-01T11:32:54.360Z,45.20
2024-02-01T11:38:03.162Z,39.60
2024-02-01T11:43:10.328Z,43.60
2024-02-01T11:48:18.554Z,43.50
2024-02-01T11:53:25.698Z,49.90
2024-02-01T11:58:33.269Z,51.30
2024-02-01T12:03:47.747Z,45.60
2024-02-01T12:08:54.260Z,51.70
2024-02-01T12:19:14.369Z,37.80
2024-02-01T12:24:25.227Z,36.60
2024-02-01T12:29:32.721Z,38.40
2024-02-01T12:34:39.321Z,36.60
2024-02-01T12:39:45.042Z,34.40
2024-02-01T12:44:51.130Z,34.10
2024-02-01T12:49:57.628Z,36.80
2024-02-01T12:55:03.255Z,40.80
2024-02-01T13:00:12.967Z,39.40
2024-02-01T13:05:20.145Z,94.90
2024-02-01T13:10:25.977Z,56.10
2024-02-01T13:15:31.681Z,45.70
2024-02-01T13:20:37.397Z,51.10
2024-02-01T13:25:44.336Z,57.40
2024-02-01T13:30:50.027Z,56.60
2024-02-01T13:35:55.784Z,46.70
2024-02-01T13:41:01.834Z,52.60
2024-02-01T13:46:07.891Z,53.00
2024-02-01T13:51:15.177Z,47.80
2024-02-01T13:56:21.100Z,53.70
2024-02-01T14:01:28.105Z,55.10
2024-02-01T14:06:33.991Z,61.40
2024-02-01T14:11:40.641Z,61.70
2024-02-01T14:21:52.830Z,61.60
2024-02-01T14:26:58.554Z,59.80
2024-02-01T14:32:04.521Z,52.60
2024-02-01T14:37:12.443Z,56.00
2024-02-01T14:42:18.237Z,47.60
2024-02-01T14:47:24.208Z,41.70
2024-02-01T14:52:30.149Z,47.20
2024-02-01T14:57:36.248Z,51.70
2024-02-01T15:02:44.328Z,36.60
2024-02-01T15:07:50.220Z,27.70
2024-02-01T15:12:55.883Z,34.70
2024-02-01T15:18:02.966Z,28.50
2024-02-01T15:23:10.581Z,28.10
2024-02-01T15:28:18.924Z,20.20
2024-02-01T15:33:25.163Z,21.60
2024-02-01T15:43:39.263Z,27.10
2024-02-01T15:48:47.203Z,28.40
2024-02-01T15:53:52.870Z,38.90
2024-02-01T15:58:58.550Z,40.50
2024-02-01T16:04:04.355Z,39.10
2024-02-01T16:09:13.228Z,45.50
2024-02-01T16:14:23.358Z,50.80
2024-02-01T16:19:36.200Z,45.30
2024-02-01T16:24:58.645Z,76.90
2024-02-01T16:30:15.203Z,57.60
2024-02-01T16:35:48.488Z,46.10
2024-02-01T16:40:54.433Z,54.70
2024-02-01T16:46:00.283Z,56.30
2024-02-01T16:51:06.283Z,74.90
2024-02-01T16:56:13.623Z,55.60
2024-02-01T17:01:38.265Z,51.60
2024-02-01T17:06:45.057Z,60.30
2024-02-01T17:11:55.913Z,54.80
2024-02-01T17:17:03.917Z,46.00
2024-02-01T17:22:17.742Z,41.50
2024-02-01T17:27:26.645Z,46.40
2024-02-01T17:32:35.812Z,46.50
2024-02-01T17:37:43.533Z,53.20
2024-02-01T17:42:51.956Z,59.70
2024-02-01T17:48:05.854Z,49.70
2024-02-01T17:53:12.480Z,43.40
2024-02-01T18:03:40.303Z,39.10
2024-02-01T18:08:46.150Z,41.10
2024-02-01T18:13:51.930Z,35.90
2024-02-01T18:19:04.006Z,32.80
2024-02-01T18:24:23.316Z,26.80
2024-02-01T18:29:45.228Z,30.60
2024-02-01T18:34:52.473Z,31.30
2024-02-01T18:39:58.646Z,33.60
2024-02-01T18:45:21.702Z,30.50
2024-02-01T18:50:36.193Z,31.90
2024-02-01T18:55:46.749Z,28.80
2024-02-01T19:00:53.054Z,27.20
2024-02-01T19:05:58.869Z,26.50
2024-02-01T19:11:05.752Z,32.40
2024-02-01T19:16:17.691Z,39.10
2024-02-01T19:21:27.111Z,38.80
2024-02-01T19:26:33.689Z,35.80
2024-02-01T19:31:39.718Z,33.00
2024-02-01T19:36:47.484Z,21.70
2024-02-01T19:41:53.549Z,25.20
2024-02-01T19:46:59.413Z,23.10
2024-02-01T19:52:05.383Z,23.10
2024-02-01T19:57:11.869Z,31.10
2024-02-01T20:07:21.910Z,26.00
2024-02-01T20:12:27.853Z,25.40
2024-02-01T20:17:33.687Z,32.70
2024-02-01T20:22:41.722Z,28.10
2024-02-01T20:27:55.394Z,25.20
2024-02-01T20:33:03.299Z,20.90
2024-02-01T20:38:15.247Z,21.50
2024-02-01T20:43:22.810Z,21.30
2024-02-01T20:48:46.976Z,21.50
2024-02-01T20:53:57.767Z,20.10
2024-02-01T20:59:05.948Z,21.30
2024-02-01T21:04:25.350Z,16.70
2024-02-01T21:09:41.736Z,18.20
2024-02-01T21:14:49.248Z,17.50
2024-02-01T21:19:55.633Z,17.70
2024-02-01T21:25:01.898Z,20.10
2024-02-01T21:30:11.761Z,18.60
2024-02-01T21:35:42.045Z,19.40
2024-02-01T21:40:48.018Z,16.70
2024-02-01T21:45:53.791Z,20.40
2024-02-01T21:50:59.540Z,21.00
2024-02-01T21:56:05.434Z,23.20
2024-02-01T22:01:11.160Z,18.00
2024-02-01T22:06:17.359Z,19.40
2024-02-01T22:11:23.849Z,14.80
2024-02-01T22:16:29.500Z,16.30
2024-02-01T22:21:35.209Z,21.70
2024-02-01T22:26:40.875Z,20.50
2024-02-01T22:31:47.085Z,25.20
2024-02-01T22:36:52.944Z,17.20
2024-02-01T22:41:58.654Z,16.40
2024-02-01T22:47:04.663Z,14.10
2024-02-01T22:52:10.615Z,11.70
2024-02-01T22:57:16.373Z,14.40
2024-02-01T23:02:22.006Z,12.50
2024-02-01T23:07:28.233Z,14.20
2024-02-01T23:12:34.276Z,12.40
2024-02-01T23:17:40.067Z,15.10
2024-02-01T23:22:45.759Z,12.40
2024-02-01T23:27:51.667Z,15.20
2024-02-01T23:32:57.598Z,16.10
2024-02-01T23:38:03.434Z,11.20
2024-02-01T23:43:09.213Z,11.20
2024-02-01T23:48:15.501Z,7.40
2024-02-01T23:53:21.388Z,10.70
2024-02-01T23:58:27.500Z,18.50
